createdAt,value
2022-09-13T00:02:03.616Z,99346.44
2022-09-13T00:04:43.677Z,99347.84
2022-09-13T00:07:17.625Z,99348.69
2022-09-13T00:09:47.585Z,99361.28
2022-09-13T00:12:23.289Z,99366.78
2022-09-13T00:14:59.286Z,99367.88
2022-09-13T00:17:30.795Z,99354.47
2022-09-13T00:20:06.009Z,99358.34
2022-09-13T00:22:42.441Z,99353.03
2022-09-13T00:25:16.257Z,99356.78
2022-09-13T00:27:47.537Z,99360.53
2022-09-13T00:30:21.464Z,99368.28
2022-09-13T00:32:53.671Z,99353.59
2022-09-13T00:35:25.411Z,99361.53
2022-09-13T00:37:56.317Z,99363.03
2022-09-13T00:40:27.077Z,99372.41
2022-09-13T00:42:57.387Z,99368.28
2022-09-13T00:45:29.390Z,99364.28
2022-09-13T00:48:07.955Z,99360.38
2022-09-13T00:50:53.963Z,99363.31
2022-09-13T00:53:41.880Z,99375.91
2022-09-13T00:56:49.919Z,99377.69
2022-09-13T00:59:28.243Z,99384.19
2022-09-13T01:02:05.822Z,99377.69
2022-09-13T01:04:45.229Z,99389.81
2022-09-13T01:07:19.629Z,99392.34
2022-09-13T01:09:56.978Z,99386.00
2022-09-13T01:12:43.341Z,99385.03
2022-09-13T01:15:58.018Z,99388.28
2022-09-13T01:35:06.161Z,99408.50
2022-09-13T01:43:30.447Z,99399.59
2022-09-13T01:47:15.458Z,99401.00
2022-09-13T01:50:55.771Z,99395.59
2022-09-13T01:54:23.695Z,99405.13
2022-09-13T02:03:23.691Z,99414.22
2022-09-13T02:11:59.961Z,99425.59
2022-09-13T02:16:20.422Z,99430.31
2022-09-13T03:34:50.350Z,99425.19
2022-09-13T04:03:13.663Z,99412.66
2022-09-13T04:07:12.290Z,99417.31
2022-09-13T04:10:44.103Z,99413.88
2022-09-13T04:13:58.399Z,99415.59
2022-09-13T04:16:49.921Z,99412.66
2022-09-13T04:19:55.177Z,99410.44
2022-09-13T04:22:41.449Z,99427.53
2022-09-13T04:25:24.310Z,99427.25
2022-09-13T04:28:36.080Z,99424.19
2022-09-13T04:31:34.809Z,99420.91
2022-09-13T04:38:18.048Z,99397.28
2022-09-13T04:41:40.808Z,99393.44
2022-09-13T04:44:48.188Z,99397.56
2022-09-13T04:47:35.513Z,99406.66
2022-09-13T04:50:51.649Z,99406.72
2022-09-13T04:54:02.620Z,99404.72
2022-09-13T04:59:53.388Z,99416.09
2022-09-13T05:05:34.331Z,99415.13
2022-09-13T05:08:25.709Z,99414.81
2022-09-13T05:11:06.298Z,99413.50
2022-09-13T05:14:04.054Z,99396.09
2022-09-13T05:17:13.755Z,99407.13
2022-09-13T05:19:51.827Z,99386.84
2022-09-13T05:22:32.920Z,99386.56
2022-09-13T05:25:11.782Z,99396.06
2022-09-13T05:27:51.251Z,99387.50
2022-09-13T05:30:26.091Z,99387.66
2022-09-13T05:33:00.642Z,99389.19
2022-09-13T05:35:38.347Z,99385.22
2022-09-13T05:38:14.376Z,99374.41
2022-09-13T05:41:02.296Z,99370.66
2022-09-13T05:43:36.013Z,99379.66
2022-09-13T05:46:24.038Z,99378.41
2022-09-13T05:49:09.661Z,99377.19
2022-09-13T05:51:53.948Z,99379.13
2022-09-13T05:54:28.696Z,99384.16
2022-09-13T05:57:06.025Z,99375.72
2022-09-13T05:59:46.402Z,99379.47
2022-09-13T06:02:20.537Z,99383.34
2022-09-13T06:04:55.770Z,99405.13
2022-09-13T06:08:26.139Z,99392.59
2022-09-13T06:40:45.095Z,99350.09
2022-09-13T06:50:42.498Z,99333.22
2022-09-13T07:00:28.275Z,99307.19
2022-09-13T07:22:58.290Z,99330.44
2022-09-13T07:41:58.291Z,99318.66
2022-09-13T07:44:35.572Z,99323.78
2022-09-13T07:47:24.144Z,99325.69
2022-09-13T07:49:58.122Z,99325.69
2022-09-13T07:52:32.891Z,99331.28
2022-09-13T07:55:03.683Z,99334.88
2022-09-13T07:57:35.376Z,99342.09
2022-09-13T08:00:10.012Z,99345.03
2022-09-13T08:03:36.117Z,99337.28
2022-09-13T08:06:18.239Z,99339.53
2022-09-13T08:08:47.995Z,99342.13
2022-09-13T08:11:35.514Z,99334.50
2022-09-13T08:14:27.714Z,99329.47
2022-09-13T08:17:51.211Z,99329.34
2022-09-13T08:20:28.203Z,99335.50
2022-09-13T08:23:08.005Z,99335.34
2022-09-13T08:26:03.625Z,99330.56
2022-09-13T08:30:00.536Z,99321.25
2022-09-13T08:46:11.827Z,99331.47
2022-09-13T08:54:18.662Z,99327.97
2022-09-13T08:58:22.833Z,99324.06
2022-09-13T09:05:22.790Z,99331.66
2022-09-13T09:08:26.970Z,99315.50
2022-09-13T09:11:51.238Z,99312.09
2022-09-13T09:15:04.707Z,99313.66
2022-09-13T09:21:31.606Z,99320.19
2022-09-13T09:24:20.206Z,99325.59
2022-09-13T09:27:04.454Z,99332.44
2022-09-13T09:29:59.022Z,99328.28
2022-09-13T09:33:02.584Z,99340.22
2022-09-13T09:35:51.268Z,99344.91
2022-09-13T09:38:46.275Z,99357.81
2022-09-13T09:42:01.982Z,99353.81
2022-09-13T09:44:36.027Z,99349.31
2022-09-13T09:48:06.699Z,99355.28
2022-09-13T09:50:56.160Z,99365.09
2022-09-13T09:54:04.668Z,99369.09
2022-09-13T09:57:20.139Z,99363.75
2022-09-13T10:00:24.711Z,99368.03
2022-09-13T10:03:46.094Z,99361.47
2022-09-13T10:06:31.993Z,99359.94
2022-09-13T10:09:20.249Z,99350.28
2022-09-13T10:16:12.190Z,99365.69
2022-09-13T10:18:46.005Z,99376.81
2022-09-13T10:21:44.332Z,99376.63
2022-09-13T10:24:28.721Z,99374.28
2022-09-13T10:27:24.680Z,99373.47
2022-09-13T10:30:22.962Z,99380.88
2022-09-13T10:33:43.290Z,99389.69
2022-09-13T10:36:48.235Z,99405.84
2022-09-13T10:39:30.529Z,99430.81
2022-09-13T10:45:28.701Z,99417.88
2022-09-13T10:48:35.752Z,99434.47
2022-09-13T10:51:34.954Z,99430.09
2022-09-13T10:54:31.520Z,99433.81
2022-09-13T10:57:04.191Z,99435.47
2022-09-13T11:01:19.260Z,99439.97
2022-09-13T11:04:50.008Z,99447.81
2022-09-13T11:08:46.181Z,99451.69
2022-09-13T11:11:28.042Z,99454.56
2022-09-13T11:15:15.621Z,99468.44
2022-09-13T11:18:43.210Z,99459.38
2022-09-13T11:21:52.020Z,99468.84
2022-09-13T11:24:43.311Z,99478.69
2022-09-13T11:27:50.821Z,99493.06
2022-09-13T11:31:22.947Z,99470.09
2022-09-13T11:34:46.665Z,99469.81
2022-09-13T11:37:58.692Z,99491.50
2022-09-13T11:41:52.144Z,99510.00
2022-09-13T11:44:58.310Z,99507.53
2022-09-13T11:48:32.699Z,99508.47
2022-09-13T11:51:47.190Z,99504.59
2022-09-13T11:55:00.280Z,99510.09
2022-09-13T11:58:59.976Z,99521.75
2022-09-13T12:02:21.825Z,99515.28
2022-09-13T12:05:35.368Z,99522.88
2022-09-13T12:08:20.836Z,99515.13
2022-09-13T12:12:15.475Z,99514.13
2022-09-13T12:15:51.190Z,99525.31
2022-09-13T12:18:58.591Z,99524.44
2022-09-13T12:21:59.654Z,99524.72
2022-09-13T14:06:05.433Z,99573.16
2022-09-13T14:09:33.383Z,99576.59
2022-09-13T14:12:35.887Z,99581.19
2022-09-13T14:16:19.620Z,99580.63
2022-09-13T14:19:13.108Z,99576.50
2022-09-13T14:22:23.849Z,99576.28
2022-09-13T14:34:44.407Z,99586.22
2022-09-13T14:42:51.163Z,99599.13
2022-09-13T14:45:51.197Z,99585.63
2022-09-13T14:48:33.970Z,99590.03
2022-09-13T14:52:11.714Z,99593.84
2022-09-13T14:54:54.301Z,99594.50
2022-09-13T14:57:36.211Z,99594.19
2022-09-13T15:00:24.989Z,99584.56
2022-09-13T15:03:12.266Z,99583.81
2022-09-13T15:05:58.067Z,99583.72
2022-09-13T15:08:46.575Z,99591.56
2022-09-13T15:11:35.372Z,99583.44
2022-09-13T15:14:48.205Z,99594.94
2022-09-13T15:17:56.950Z,99595.78
2022-09-13T15:20:52.471Z,99597.06
2022-09-13T15:23:30.372Z,99578.97
2022-09-13T15:26:11.488Z,99574.31
2022-09-13T15:28:51.456Z,99579.38
2022-09-13T15:31:30.043Z,99574.66
2022-09-13T15:34:24.557Z,99576.72
2022-09-13T15:37:09.894Z,99576.41
2022-09-13T15:40:23.926Z,99577.63
2022-09-13T15:42:56.241Z,99573.88
2022-09-13T15:45:28.928Z,99578.13
2022-09-13T15:47:59.378Z,99580.88
2022-09-13T15:50:46.940Z,99570.69
2022-09-13T15:53:16.356Z,99568.66
2022-09-13T15:55:46.996Z,99566.47
2022-09-13T15:58:15.238Z,99562.63
2022-09-13T16:00:45.993Z,99559.00
2022-09-13T16:03:16.719Z,99566.47
2022-09-13T16:05:47.872Z,99561.53
2022-09-13T16:08:19.250Z,99565.16
2022-09-13T16:10:52.391Z,99557.00
2022-09-13T16:13:24.296Z,99561.13
2022-09-13T16:16:01.211Z,99558.41
2022-09-13T16:18:33.266Z,99552.28
2022-09-13T16:21:04.278Z,99558.06
2022-09-13T16:23:44.116Z,99553.94
2022-09-13T16:26:16.139Z,99558.28
2022-09-13T16:28:56.117Z,99548.31
2022-09-13T16:31:27.102Z,99543.78
2022-09-13T16:33:56.744Z,99539.81
2022-09-13T16:36:30.441Z,99537.91
2022-09-13T16:39:02.412Z,99541.63
2022-09-13T16:41:34.126Z,99533.72
2022-09-13T16:44:06.374Z,99523.41
2022-09-13T16:46:42.471Z,99526.81
2022-09-13T16:49:12.446Z,99523.38
2022-09-13T16:51:43.639Z,99520.38
2022-09-13T16:54:15.279Z,99524.69
2022-09-13T16:56:46.738Z,99518.56
2022-09-13T16:59:18.255Z,99522.22
2022-09-13T17:01:51.566Z,99516.78
2022-09-13T17:04:23.643Z,99514.09
2022-09-13T17:06:59.331Z,99513.66
2022-09-13T17:09:29.893Z,99523.78
2022-09-13T17:12:03.741Z,99516.00
2022-09-13T17:15:00.220Z,99517.88
2022-09-13T17:17:47.173Z,99512.44
2022-09-13T17:20:15.769Z,99508.06
2022-09-13T17:23:56.583Z,99510.19
2022-09-13T17:26:50.634Z,99511.22
2022-09-13T17:41:34.734Z,99508.63
2022-09-13T17:44:11.639Z,99495.63
2022-09-13T17:51:18.902Z,99500.41
2022-09-13T17:53:59.811Z,99501.81
2022-09-13T17:56:36.467Z,99496.25
2022-09-13T17:59:18.195Z,99497.97
2022-09-13T18:01:51.449Z,99492.59
2022-09-13T18:04:26.678Z,99495.63
2022-09-13T18:06:57.778Z,99494.53
2022-09-13T18:09:55.194Z,99483.78
2022-09-13T18:13:06.331Z,99481.16
2022-09-13T18:20:25.425Z,99482.78
2022-09-13T18:24:23.408Z,99478.63
2022-09-13T18:27:23.799Z,99484.56
2022-09-13T18:30:10.352Z,99474.97
2022-09-13T18:33:13.007Z,99479.00
2022-09-13T18:35:43.692Z,99475.47
2022-09-13T18:38:15.245Z,99465.72
2022-09-13T18:40:46.801Z,99473.88
2022-09-13T18:43:18.459Z,99462.38
2022-09-13T18:45:55.750Z,99459.13
2022-09-13T18:48:39.913Z,99471.53
2022-09-13T18:51:14.407Z,99466.06
2022-09-13T18:53:44.910Z,99460.19
2022-09-13T18:56:18.362Z,99461.06
2022-09-13T18:58:50.171Z,99447.78
2022-09-13T19:01:35.502Z,99443.16
2022-09-13T19:04:16.101Z,99451.16
2022-09-13T19:06:53.022Z,99456.13
2022-09-13T19:09:26.988Z,99455.09
2022-09-13T19:15:22.316Z,99437.50
2022-09-13T19:17:58.205Z,99439.31
2022-09-13T19:20:30.479Z,99436.41
2022-09-13T19:23:03.061Z,99439.69
2022-09-13T19:25:36.583Z,99434.84
2022-09-13T19:28:15.996Z,99432.31
2022-09-13T19:30:51.769Z,99437.69
2022-09-13T19:33:22.487Z,99436.25
2022-09-13T19:36:22.545Z,99428.09
2022-09-13T19:39:00.099Z,99431.94
2022-09-13T19:41:57.824Z,99433.19
2022-09-13T19:44:30.384Z,99433.50
2022-09-13T19:48:25.853Z,99439.88
2022-09-13T19:50:18.665Z,99432.56
2022-09-13T19:52:51.725Z,99432.31
2022-09-13T19:55:23.849Z,99428.78
2022-09-13T19:57:59.875Z,99425.13
2022-09-13T20:00:34.820Z,99424.59
2022-09-13T20:03:12.477Z,99430.84
2022-09-13T20:06:19.632Z,99434.22
2022-09-13T20:08:53.934Z,99436.44
2022-09-13T20:11:29.038Z,99421.56
2022-09-13T20:14:02.372Z,99428.84
2022-09-13T20:16:42.348Z,99430.22
2022-09-13T20:22:14.847Z,99421.06
2022-09-13T20:24:46.346Z,99435.34
2022-09-13T20:27:16.667Z,99422.22
2022-09-13T20:30:22.269Z,99431.25
2022-09-13T20:39:14.879Z,99423.78
2022-09-13T20:41:46.812Z,99421.78
2022-09-13T20:44:16.190Z,99424.09
2022-09-13T20:46:48.048Z,99429.97
2022-09-13T20:49:20.354Z,99416.22
2022-09-13T20:51:51.845Z,99432.13
2022-09-13T20:54:21.995Z,99420.19
2022-09-13T20:56:59.567Z,99428.97
2022-09-13T20:59:30.062Z,99434.09
2022-09-13T21:02:00.659Z,99432.50
2022-09-13T21:04:31.343Z,99429.91
2022-09-13T21:07:20.131Z,99426.91
2022-09-13T21:10:02.879Z,99431.00
2022-09-13T21:12:34.140Z,99431.44
2022-09-13T21:15:10.896Z,99436.44
2022-09-13T21:17:46.332Z,99430.81
2022-09-13T21:20:16.989Z,99431.97
2022-09-13T21:22:48.709Z,99441.75
2022-09-13T21:25:20.279Z,99434.00
2022-09-13T21:27:52.474Z,99435.66
2022-09-13T21:30:27.033Z,99449.41
2022-09-13T21:32:58.506Z,99444.56
2022-09-13T21:35:35.185Z,99447.97
2022-09-13T21:38:12.664Z,99449.69
2022-09-13T21:40:47.213Z,99460.06
2022-09-13T21:43:18.741Z,99458.63
2022-09-13T21:45:48.500Z,99453.38
2022-09-13T21:48:27.053Z,99458.50
2022-09-13T21:51:15.751Z,99464.13
2022-09-13T21:53:56.172Z,99464.06
2022-09-13T21:56:34.324Z,99473.13
2022-09-13T21:59:19.475Z,99471.31
2022-09-13T22:01:53.569Z,99481.94
2022-09-13T22:04:30.116Z,99482.09
2022-09-13T22:07:00.457Z,99481.03
2022-09-13T22:09:34.413Z,99491.75
2022-09-13T22:12:07.103Z,99480.97
2022-09-13T22:14:42.380Z,99486.72
2022-09-13T22:17:12.335Z,99491.28
2022-09-13T22:19:42.752Z,99490.88
2022-09-13T22:22:12.676Z,99491.66
2022-09-13T22:24:47.643Z,99496.72
2022-09-13T22:27:18.623Z,99496.31
2022-09-13T22:29:48.646Z,99496.72
2022-09-13T22:32:23.252Z,99497.31
2022-09-13T22:34:58.573Z,99505.13
2022-09-13T22:37:48.092Z,99513.41
2022-09-13T22:40:24.325Z,99504.84
2022-09-13T22:42:58.403Z,99506.28
2022-09-13T22:45:30.144Z,99509.63
2022-09-13T22:48:00.428Z,99504.84
2022-09-13T22:56:49.997Z,99521.34
2022-09-13T23:12:17.298Z,99540.78
2022-09-13T23:15:36.000Z,99543.41
2022-09-13T23:18:35.305Z,99548.41
2022-09-13T23:21:46.235Z,99550.06
2022-09-13T23:27:47.614Z,99556.28
2022-09-13T23:30:29.265Z,99555.22
2022-09-13T23:33:13.573Z,99559.44
2022-09-13T23:36:00.515Z,99564.47
2022-09-13T23:39:05.101Z,99570.28
2022-09-13T23:41:54.340Z,99574.97
2022-09-13T23:44:47.073Z,99578.81
2022-09-13T23:47:19.939Z,99578.66
2022-09-13T23:49:59.261Z,99590.22
2022-09-13T23:52:35.899Z,99594.50
2022-09-13T23:55:15.761Z,99604.09
2022-09-13T23:57:50.739Z,99599.69
